Time;durP1;ratioP1;P1;durP2;ratioP2;P2;SDS_P1;SDS_P2;PMS_P1;PMS_P2;Temp;Humidity;BMP_temperature;BMP_pressure;BME280_temperature;BME280_humidity;BME280_pressure;Samples;Min_cycle;Max_cycle;Signal;HPM_P1;HPM_P2
2023/05/31 00:02:16;;;;;;;0.00;0.00;;;7.50;99.90;;;;;;5105876;28;20118;-76
2023/05/31 00:04:41;;;;;;;0.00;0.00;;;7.50;99.90;;;;;;5105826;28;20081;-75
2023/05/31 00:07:07;;;;;;;0.00;0.00;;;7.40;99.90;;;;;;5106342;28;20039;-76
2023/05/31 00:09:33;;;;;;;0.10;0.10;;;7.40;99.90;;;;;;5105952;28;20043;-76
2023/05/31 00:11:59;;;;;;;0.00;0.00;;;7.40;99.90;;;;;;5106113;28;20577;-76
2023/05/31 00:14:25;;;;;;;0.52;0.52;;;7.40;99.90;;;;;;5105966;28;20090;-76
2023/05/31 00:16:52;;;;;;;0.30;0.30;;;7.40;99.90;;;;;;5105933;28;20498;-76
2023/05/31 00:19:18;;;;;;;0.00;0.00;;;7.50;99.90;;;;;;5106245;28;20047;-75
2023/05/31 00:21:47;;;;;;;0.55;0.50;;;7.60;99.90;;;;;;5106256;28;20066;-76
2023/05/31 00:24:13;;;;;;;0.10;0.10;;;7.70;99.90;;;;;;5087443;28;20122;-76
2023/05/31 00:26:39;;;;;;;0.00;0.00;;;7.70;99.90;;;;;;5105749;28;20123;-76
2023/05/31 00:29:05;;;;;;;0.10;0.10;;;7.70;99.90;;;;;;5105563;28;20043;-76
2023/05/31 00:31:31;;;;;;;2.33;0.55;;;7.80;99.90;;;;;;5105179;28;20043;-76
2023/05/31 00:33:57;;;;;;;2.38;1.00;;;7.80;99.90;;;;;;5105350;28;20157;-76
2023/05/31 00:36:23;;;;;;;0.00;0.00;;;7.80;99.90;;;;;;5105507;28;20047;-78
2023/05/31 00:38:48;;;;;;;0.10;0.10;;;7.70;99.90;;;;;;5105522;28;20043;-76
2023/05/31 00:41:14;;;;;;;0.10;0.10;;;7.70;99.90;;;;;;5105267;28;20055;-75
2023/05/31 00:43:40;;;;;;;0.05;0.05;;;7.70;99.90;;;;;;5105436;28;20161;-76
2023/05/31 00:46:09;;;;;;;0.40;0.40;;;7.70;99.90;;;;;;5104992;28;20104;-76
2023/05/31 00:48:35;;;;;;;0.00;0.00;;;7.60;99.90;;;;;;5104988;28;20039;-76
2023/05/31 00:51:01;;;;;;;0.30;0.30;;;7.50;99.90;;;;;;5105083;28;20105;-77
2023/05/31 00:53:27;;;;;;;0.30;0.28;;;7.30;99.90;;;;;;5104873;28;20043;-76
2023/05/31 00:55:53;;;;;;;0.20;0.20;;;7.10;99.90;;;;;;5104692;28;20035;-76
2023/05/31 00:58:20;;;;;;;0.00;0.00;;;7.10;99.90;;;;;;5104354;28;20126;-76
2023/05/31 01:00:46;;;;;;;0.00;0.00;;;7.00;99.90;;;;;;5104572;28;20432;-75
2023/05/31 01:03:12;;;;;;;0.38;0.15;;;6.90;99.90;;;;;;5104537;28;20051;-76
2023/05/31 01:05:39;;;;;;;0.10;0.10;;;7.00;99.90;;;;;;5104889;28;20063;-76
2023/05/31 01:08:05;;;;;;;0.00;0.00;;;7.00;99.90;;;;;;5104640;28;20490;-76
2023/05/31 01:10:31;;;;;;;0.63;0.35;;;7.00;99.90;;;;;;5104724;28;20061;-76
2023/05/31 01:13:00;;;;;;;0.47;0.43;;;7.00;99.90;;;;;;5104106;28;20054;-76
2023/05/31 01:15:39;;;;;;;0.08;0.08;;;7.00;99.90;;;;;;5104583;28;20470;-76
2023/05/31 01:18:19;;;;;;;0.03;0.03;;;7.00;99.90;;;;;;5104451;28;20058;-76
2023/05/31 01:20:47;;;;;;;0.00;0.00;;;7.00;99.90;;;;;;5104350;28;20104;-76
2023/05/31 01:23:13;;;;;;;0.20;0.20;;;7.00;99.90;;;;;;5104810;28;20097;-76
2023/05/31 01:25:41;;;;;;;0.00;0.00;;;6.90;99.90;;;;;;5104520;28;20546;-76
2023/05/31 01:28:09;;;;;;;0.13;0.10;;;6.80;99.90;;;;;;5104507;28;20094;-76
2023/05/31 01:30:37;;;;;;;0.00;0.00;;;6.80;99.90;;;;;;5104176;28;20039;-76
2023/05/31 01:33:06;;;;;;;0.30;0.30;;;6.90;99.90;;;;;;5104061;28;20112;-76
2023/05/31 01:35:32;;;;;;;0.38;0.30;;;6.80;99.90;;;;;;5104378;28;20046;-76
2023/05/31 01:37:57;;;;;;;0.00;0.00;;;6.80;99.90;;;;;;5104112;28;20048;-77
2023/05/31 01:40:23;;;;;;;0.00;0.00;;;6.80;99.90;;;;;;5104069;28;20428;-76
2023/05/31 01:42:50;;;;;;;0.00;0.00;;;6.80;99.90;;;;;;5103711;28;20470;-77
2023/05/31 01:45:17;;;;;;;0.00;0.00;;;6.80;99.90;;;;;;5103760;28;20461;-76
2023/05/31 01:47:44;;;;;;;0.10;0.10;;;6.70;99.90;;;;;;5103927;28;20083;-75
2023/05/31 01:50:12;;;;;;;0.10;0.10;;;6.60;99.90;;;;;;5104178;28;20151;-76
2023/05/31 01:52:38;;;;;;;0.00;0.00;;;6.50;99.90;;;;;;5103864;28;20124;-76
2023/05/31 01:55:04;;;;;;;0.28;0.28;;;6.40;99.90;;;;;;5103919;28;20578;-76
2023/05/31 01:57:31;;;;;;;0.32;0.32;;;6.40;99.90;;;;;;5103610;28;20043;-76
2023/05/31 01:59:59;;;;;;;0.10;0.10;;;6.30;99.90;;;;;;5103876;28;20040;-76
2023/05/31 02:02:27;;;;;;;0.10;0.10;;;6.30;99.90;;;;;;5103742;28;20035;-76
2023/05/31 02:05:08;;;;;;;0.00;0.00;;;6.20;99.90;;;;;;5103919;28;20052;-76
2023/05/31 02:07:37;;;;;;;0.13;0.10;;;6.10;99.90;;;;;;5104221;28;20078;-76
2023/05/31 02:10:04;;;;;;;0.00;0.00;;;6.00;99.90;;;;;;5103917;28;20044;-76
2023/05/31 02:12:30;;;;;;;0.00;0.00;;;6.10;99.90;;;;;;5103402;28;20070;-78
2023/05/31 02:14:55;;;;;;;0.17;0.17;;;6.10;99.90;;;;;;5103224;28;20553;-76
2023/05/31 02:17:24;;;;;;;0.00;0.00;;;6.00;99.90;;;;;;5104035;28;20043;-76
2023/05/31 02:19:53;;;;;;;0.00;0.00;;;5.90;99.90;;;;;;5102927;28;20047;-77
2023/05/31 02:22:22;;;;;;;0.52;0.20;;;5.80;99.90;;;;;;5103368;28;20387;-76
2023/05/31 02:24:48;;;;;;;0.00;0.00;;;5.90;99.90;;;;;;5103363;28;20062;-76
2023/05/31 02:27:14;;;;;;;0.00;0.00;;;6.00;99.90;;;;;;5102728;28;20456;-75
2023/05/31 02:29:40;;;;;;;0.00;0.00;;;6.20;99.90;;;;;;5102781;28;20499;-76
2023/05/31 02:32:06;;;;;;;0.40;0.30;;;6.20;99.90;;;;;;5103023;28;20079;-75
2023/05/31 02:34:33;;;;;;;0.00;0.00;;;6.20;99.90;;;;;;5103135;28;20077;-76
2023/05/31 02:37:02;;;;;;;0.00;0.00;;;6.20;99.90;;;;;;5102734;28;20126;-76
2023/05/31 02:39:29;;;;;;;0.00;0.00;;;6.20;99.90;;;;;;5103193;28;20118;-76
2023/05/31 02:41:54;;;;;;;0.05;0.05;;;6.10;99.90;;;;;;5103728;28;20052;-77
2023/05/31 02:44:20;;;;;;;0.88;0.50;;;6.00;99.90;;;;;;5103359;28;20059;-76
2023/05/31 02:46:46;;;;;;;0.10;0.10;;;6.00;99.90;;;;;;5103209;28;20085;-77
2023/05/31 02:49:12;;;;;;;0.00;0.00;;;5.90;99.90;;;;;;5102999;28;20126;-77
2023/05/31 02:51:37;;;;;;;0.00;0.00;;;5.80;99.90;;;;;;5102825;28;20043;-76
2023/05/31 02:54:03;;;;;;;0.00;0.00;;;5.70;99.90;;;;;;5102801;28;20578;-76
2023/05/31 02:56:29;;;;;;;0.00;0.00;;;5.70;99.90;;;;;;5103305;28;20048;-76
2023/05/31 02:58:56;;;;;;;0.00;0.00;;;5.70;99.90;;;;;;5103425;28;20047;-76
2023/05/31 03:01:21;;;;;;;0.00;0.00;;;5.70;99.90;;;;;;5102930;28;20130;-77
2023/05/31 03:03:47;;;;;;;0.00;0.00;;;5.70;99.90;;;;;;5103184;28;20051;-76
2023/05/31 03:06:16;;;;;;;0.00;0.00;;;5.70;99.90;;;;;;5103231;28;20047;-76
2023/05/31 03:08:42;;;;;;;0.00;0.00;;;5.70;99.90;;;;;;5102982;28;20052;-76
2023/05/31 03:11:08;;;;;;;1.75;0.55;;;6.60;99.90;;;;;;5102604;28;20070;-76
2023/05/31 03:13:33;;;;;;;0.00;0.00;;;5.60;99.90;;;;;;5102509;28;20169;-76
2023/05/31 03:16:00;;;;;;;0.52;0.35;;;5.60;99.90;;;;;;5102799;28;20047;-77
2023/05/31 03:18:26;;;;;;;0.32;0.32;;;5.60;99.90;;;;;;5102977;28;20066;-76
2023/05/31 03:20:51;;;;;;;3.22;0.40;;;5.70;99.90;;;;;;5103311;28;20035;-76
2023/05/31 03:23:17;;;;;;;0.47;0.47;;;5.70;99.90;;;;;;5102694;28;20052;-77
2023/05/31 03:25:43;;;;;;;0.25;0.25;;;5.90;99.90;;;;;;5103326;28;20081;-76
2023/05/31 03:28:08;;;;;;;0.10;0.10;;;5.90;99.90;;;;;;5102853;28;20528;-77
2023/05/31 03:30:34;;;;;;;0.45;0.45;;;5.90;99.90;;;;;;5103906;28;20456;-76
2023/05/31 03:33:00;;;;;;;0.10;0.10;;;5.90;99.90;;;;;;5106877;28;20447;-76
2023/05/31 03:35:25;;;;;;;0.00;0.00;;;5.90;99.90;;;;;;5106518;28;20074;-76
2023/05/31 03:37:52;;;;;;;0.00;0.00;;;5.90;99.90;;;;;;5106595;28;20048;-76
2023/05/31 03:40:18;;;;;;;0.00;0.00;;;5.90;99.90;;;;;;5106380;28;20051;-76
2023/05/31 03:42:44;;;;;;;0.25;0.25;;;5.80;99.90;;;;;;5106665;28;20051;-76
2023/05/31 03:45:09;;;;;;;0.00;0.00;;;5.80;99.90;;;;;;5106455;28;20504;-77
2023/05/31 03:47:35;;;;;;;0.28;0.28;;;5.80;99.90;;;;;;5106585;28;20051;-77
2023/05/31 03:50:03;;;;;;;0.15;0.15;;;5.90;99.90;;;;;;5106381;28;20050;-76
2023/05/31 03:52:29;;;;;;;0.03;0.03;;;6.20;99.90;;;;;;5106395;28;20056;-76
2023/05/31 03:54:54;;;;;;;0.03;0.03;;;6.30;99.90;;;;;;5106134;28;20053;-76
2023/05/31 03:57:20;;;;;;;0.20;0.20;;;6.40;99.90;;;;;;5106476;28;20047;-76
2023/05/31 03:59:45;;;;;;;0.00;0.00;;;6.50;99.90;;;;;;5106085;28;20048;-77
2023/05/31 04:02:11;;;;;;;0.00;0.00;;;6.60;99.90;;;;;;5105642;28;20047;-77
2023/05/31 04:04:37;;;;;;;0.47;0.45;;;6.70;99.90;;;;;;5106059;28;20063;-77
2023/05/31 04:07:03;;;;;;;0.00;0.00;;;7.00;99.90;;;;;;5105927;28;20040;-77
2023/05/31 04:09:28;;;;;;;0.00;0.00;;;7.20;99.90;;;;;;5105999;28;20413;-77
2023/05/31 04:11:54;;;;;;;0.20;0.20;;;7.20;99.90;;;;;;5105957;28;20114;-77
2023/05/31 04:14:20;;;;;;;0.00;0.00;;;7.20;99.90;;;;;;5105688;28;20112;-77
2023/05/31 04:16:45;;;;;;;0.00;0.00;;;7.30;99.90;;;;;;5105788;28;20051;-77
2023/05/31 04:19:11;;;;;;;0.90;0.43;;;7.30;99.90;;;;;;5105783;28;20066;-78
2023/05/31 04:21:37;;;;;;;0.00;0.00;;;7.30;99.90;;;;;;5106275;28;20087;-78
2023/05/31 04:24:03;;;;;;;0.03;0.03;;;7.40;99.90;;;;;;5106519;28;20078;-76
2023/05/31 04:26:29;;;;;;;0.00;0.00;;;7.60;99.90;;;;;;5105842;28;20550;-78
2023/05/31 04:28:55;;;;;;;0.00;0.00;;;7.70;99.90;;;;;;5105429;28;20134;-76
2023/05/31 04:31:30;;;;;;;0.00;0.00;;;8.00;99.90;;;;;;5105568;28;20135;-77
2023/05/31 04:33:57;;;;;;;0.00;0.00;;;8.20;99.90;;;;;;5105854;28;20044;-77
2023/05/31 04:36:25;;;;;;;0.10;0.05;;;8.40;99.90;;;;;;5105792;28;20548;-77
2023/05/31 04:38:55;;;;;;;0.52;0.52;;;8.60;99.90;;;;;;5105120;28;20063;-77
2023/05/31 04:41:25;;;;;;;0.03;0.03;;;8.70;99.90;;;;;;5104744;28;20098;-77
2023/05/31 04:43:52;;;;;;;0.00;0.00;;;9.30;99.90;;;;;;5104092;28;20127;-77
2023/05/31 04:46:19;;;;;;;0.00;0.00;;;10.30;99.90;;;;;;5103982;28;20054;-77
2023/05/31 04:48:48;;;;;;;0.32;0.10;;;10.90;99.90;;;;;;5103775;28;20122;-77
2023/05/31 04:51:13;;;;;;;0.20;0.13;;;11.40;99.90;;;;;;5104154;28;20052;-77
2023/05/31 04:53:39;;;;;;;0.60;0.45;;;11.80;99.90;;;;;;5103875;28;20302;-77
2023/05/31 04:56:07;;;;;;;0.20;0.20;;;12.20;99.90;;;;;;5103793;28;20054;-77
2023/05/31 04:58:33;;;;;;;0.15;0.15;;;12.50;99.90;;;;;;5103690;28;20127;-77
2023/05/31 05:01:02;;;;;;;0.82;0.75;;;12.90;99.90;;;;;;5103603;28;20467;-77
2023/05/31 05:03:28;;;;;;;0.45;0.28;;;13.20;99.90;;;;;;5104020;28;20051;-77
2023/05/31 05:05:57;;;;;;;0.57;0.57;;;13.30;99.90;;;;;;5103762;28;20509;-77
2023/05/31 05:08:22;;;;;;;0.08;0.08;;;13.60;99.90;;;;;;5103615;28;20048;-77
2023/05/31 05:10:49;;;;;;;0.40;0.10;;;13.50;99.90;;;;;;5103300;28;20059;-75
2023/05/31 05:13:16;;;;;;;0.15;0.15;;;13.80;99.90;;;;;;5103432;28;20520;-75
2023/05/31 05:15:41;;;;;;;0.82;0.52;;;14.00;99.90;;;;;;5103887;28;20054;-75
2023/05/31 05:18:07;;;;;;;0.43;0.30;;;14.70;99.90;;;;;;5085069;28;20654;-75
2023/05/31 05:20:33;;;;;;;0.52;0.52;;;15.00;99.90;;;;;;5103297;28;20093;-75
2023/05/31 05:23:02;;;;;;;0.43;0.43;;;15.40;1.00;;;;;;5103225;28;20043;-75
2023/05/31 05:25:28;;;;;;;0.52;0.10;;;15.80;99.90;;;;;;5085089;28;20127;-75
2023/05/31 05:27:53;;;;;;;0.57;0.35;;;16.00;78.20;;;;;;5104062;28;20118;-75
2023/05/31 05:30:19;;;;;;;0.32;0.32;;;16.40;99.90;;;;;;5103236;28;20048;-75
2023/05/31 05:32:44;;;;;;;0.57;0.57;;;16.70;99.90;;;;;;5103266;28;20047;-75
2023/05/31 05:35:10;;;;;;;0.90;0.85;;;16.80;1.00;;;;;;5102705;28;20046;-75
2023/05/31 05:37:36;;;;;;;0.43;0.30;;;17.00;99.90;;;;;;5103447;28;20100;-75
2023/05/31 05:40:01;;;;;;;0.20;0.20;;;17.00;1.00;;;;;;5084752;28;20409;-75
2023/05/31 05:42:28;;;;;;;0.70;0.65;;;16.90;1.00;;;;;;5102917;28;20047;-75
2023/05/31 05:44:53;;;;;;;0.35;0.35;;;16.80;99.90;;;;;;5103226;28;20055;-76
2023/05/31 05:47:19;;;;;;;0.95;0.88;;;17.00;99.90;;;;;;5103338;28;20046;-77
2023/05/31 05:49:44;;;;;;;1.40;0.77;;;17.50;96.10;;;;;;5103011;28;20084;-75
2023/05/31 05:52:10;;;;;;;35.97;1.80;;;17.70;99.90;;;;;;5102675;28;20172;-75
2023/05/31 05:54:36;;;;;;;0.73;0.73;;;18.00;99.90;;;;;;5101998;28;20552;-75
2023/05/31 05:57:03;;;;;;;1.35;0.73;;;18.20;99.90;;;;;;5102867;28;20055;-75
2023/05/31 05:59:28;;;;;;;2.40;1.50;;;18.50;1.00;;;;;;5102720;28;20090;-75
2023/05/31 06:01:54;;;;;;;13.25;1.17;;;18.40;1.00;;;;;;5103044;28;20079;-75
2023/05/31 06:04:20;;;;;;;0.45;0.45;;;18.40;1.00;;;;;;5102605;28;20043;-75
2023/05/31 06:06:46;;;;;;;0.77;0.50;;;18.30;99.90;;;;;;5102535;28;20540;-75
2023/05/31 06:09:12;;;;;;;0.70;0.45;;;18.50;99.90;;;;;;5102599;28;20114;-75
2023/05/31 06:11:37;;;;;;;0.00;0.00;;;18.50;99.90;;;;;;5102158;28;20060;-75
2023/05/31 06:14:04;;;;;;;6.25;3.05;;;18.60;1.00;;;;;;5102481;28;20483;-75
2023/05/31 06:16:30;;;;;;;0.80;0.70;;;19.10;99.90;;;;;;5102360;28;20409;-75
2023/05/31 06:18:55;;;;;;;0.50;0.40;;;18.90;99.90;;;;;;5102352;28;20043;-75
2023/05/31 06:21:21;;;;;;;22.65;1.25;;;19.00;99.90;;;;;;5102265;28;20046;-75
2023/05/31 06:23:47;;;;;;;0.35;0.25;;;19.40;99.90;;;;;;5102335;28;20516;-75
2023/05/31 06:26:12;;;;;;;0.10;0.10;;;19.90;99.90;;;;;;5102163;28;20043;-75
2023/05/31 06:28:38;;;;;;;0.98;0.55;;;19.70;99.90;;;;;;5102351;28;20048;-75
2023/05/31 06:31:04;;;;;;;2.03;1.08;;;19.80;99.90;;;;;;5084397;28;20735;-75
2023/05/31 06:33:29;;;;;;;0.47;0.43;;;19.70;99.90;;;;;;5102340;28;20123;-75
2023/05/31 06:35:55;;;;;;;0.20;0.15;;;19.70;99.90;;;;;;5102023;28;20059;-75
2023/05/31 06:38:21;;;;;;;0.52;0.47;;;19.90;99.90;;;;;;5101868;28;20075;-76
2023/05/31 06:40:47;;;;;;;0.63;0.43;;;20.40;99.90;;;;;;5102007;28;20052;-75
2023/05/31 06:43:13;;;;;;;0.73;0.35;;;20.30;95.30;;;;;;5102111;28;20044;-75
2023/05/31 06:45:41;;;;;;;1.27;0.47;;;20.30;81.00;;;;;;5102056;28;20452;-75
2023/05/31 06:48:08;;;;;;;0.10;0.10;;;20.50;50.10;;;;;;5102073;28;20102;-75
2023/05/31 06:50:34;;;;;;;0.68;0.52;;;21.30;99.80;;;;;;5102467;28;20039;-75
2023/05/31 06:52:59;;;;;;;1.10;0.65;;;21.80;28.30;;;;;;5102038;28;20043;-75
2023/05/31 06:55:25;;;;;;;2.28;0.98;;;22.10;11.20;;;;;;5101778;28;20401;-75
2023/05/31 06:57:50;;;;;;;0.45;0.35;;;22.50;1.00;;;;;;5102187;28;20839;-75
2023/05/31 07:00:17;;;;;;;4.68;0.95;;;22.60;1.00;;;;;;5102030;28;20413;-75
2023/05/31 07:02:43;;;;;;;0.90;0.85;;;22.70;1.00;;;;;;5101822;28;20058;-75
2023/05/31 07:05:09;;;;;;;0.10;0.10;;;22.50;1.00;;;;;;5103779;28;20047;-75
2023/05/31 07:07:34;;;;;;;0.75;0.47;;;22.70;1.00;;;;;;5105886;28;20051;-75
2023/05/31 07:10:01;;;;;;;0.30;0.22;;;22.70;1.00;;;;;;5106134;28;20486;-75
2023/05/31 07:12:26;;;;;;;0.20;0.13;;;22.80;1.00;;;;;;5106188;28;20051;-75
2023/05/31 07:14:52;;;;;;;0.95;0.47;;;23.40;1.00;;;;;;5105793;28;20049;-75
2023/05/31 07:17:17;;;;;;;1.02;0.68;;;23.50;1.00;;;;;;5106056;28;20162;-75
2023/05/31 07:19:47;;;;;;;2.50;0.75;;;23.50;1.00;;;;;;5105723;28;20040;-75
2023/05/31 07:22:17;;;;;;;0.00;0.00;;;23.50;1.00;;;;;;5105730;28;20039;-75
2023/05/31 07:24:43;;;;;;;0.45;0.25;;;23.80;1.00;;;;;;5105589;28;20736;-75
2023/05/31 07:27:09;;;;;;;0.85;0.70;;;24.10;1.00;;;;;;5105578;28;20039;-75
2023/05/31 07:29:36;;;;;;;2.17;1.27;;;24.40;1.00;;;;;;5105430;28;20052;-75
2023/05/31 07:32:01;;;;;;;0.25;0.08;;;24.40;1.00;;;;;;5105407;28;20118;-75
2023/05/31 07:34:27;;;;;;;0.43;0.38;;;24.90;1.00;;;;;;5105319;28;20537;-75
2023/05/31 07:36:52;;;;;;;0.20;0.20;;;24.80;1.00;;;;;;5105245;28;20116;-75
2023/05/31 07:39:21;;;;;;;0.03;0.03;;;24.70;99.90;;;;;;5105321;28;20669;-75
2023/05/31 07:41:47;;;;;;;0.22;0.22;;;24.90;1.00;;;;;;5105529;28;20035;-75
2023/05/31 07:44:13;;;;;;;0.52;0.40;;;25.30;1.00;;;;;;5105270;28;20531;-75
2023/05/31 07:46:38;;;;;;;1.15;0.85;;;25.80;1.00;;;;;;5105245;28;20092;-75
2023/05/31 07:49:04;;;;;;;0.55;0.30;;;26.10;1.00;;;;;;5105232;28;20078;-75
2023/05/31 07:51:31;;;;;;;0.13;0.10;;;25.60;99.90;;;;;;5105390;28;20505;-75
2023/05/31 07:53:57;;;;;;;0.35;0.10;;;25.90;1.00;;;;;;5105079;28;20100;-75
2023/05/31 07:56:23;;;;;;;0.25;0.17;;;26.40;99.90;;;;;;5104990;28;20047;-75
2023/05/31 07:58:48;;;;;;;0.30;0.30;;;26.70;99.90;;;;;;5104934;28;20525;-75
2023/05/31 08:01:14;;;;;;;4.20;0.57;;;26.80;99.90;;;;;;5105138;28;20044;-75
2023/05/31 08:03:41;;;;;;;0.15;0.15;;;26.50;99.90;;;;;;5105196;28;20043;-75
2023/05/31 08:06:07;;;;;;;4.60;0.38;;;26.70;99.90;;;;;;5104854;28;20050;-75
2023/05/31 08:08:33;;;;;;;0.90;0.68;;;26.40;99.90;;;;;;5104785;28;20059;-75
2023/05/31 08:11:00;;;;;;;4.10;0.98;;;26.80;99.90;;;;;;5104699;28;20051;-75
2023/05/31 08:13:27;;;;;;;0.52;0.32;;;26.70;99.90;;;;;;5104637;28;20044;-75
2023/05/31 08:15:52;;;;;;;0.00;0.00;;;26.70;99.90;;;;;;5104552;28;20062;-75
2023/05/31 08:18:18;;;;;;;0.45;0.35;;;26.90;99.90;;;;;;5103779;28;20511;-75
2023/05/31 08:20:44;;;;;;;0.08;0.08;;;26.90;99.90;;;;;;5104491;28;20123;-75
2023/05/31 08:23:20;;;;;;;0.10;0.03;;;26.80;99.90;;;;;;5104868;28;20097;-75
2023/05/31 08:25:46;;;;;;;4.13;0.55;;;27.20;99.90;;;;;;5086589;28;20401;-75
2023/05/31 08:28:12;;;;;;;1.02;0.20;;;27.80;99.90;;;;;;5104505;28;20213;-75
2023/05/31 08:30:38;;;;;;;0.50;0.30;;;27.80;99.90;;;;;;5104707;28;20114;-75
2023/05/31 08:33:03;;;;;;;0.00;0.00;;;27.60;99.90;;;;;;5104287;28;20155;-75
2023/05/31 08:35:29;;;;;;;0.00;0.00;;;28.00;99.90;;;;;;5104144;28;20055;-75
2023/05/31 08:37:55;;;;;;;1.75;0.50;;;27.50;99.90;;;;;;5104125;28;20123;-75
2023/05/31 08:40:22;;;;;;;0.45;0.10;;;27.20;99.90;;;;;;5104529;28;20189;-75
2023/05/31 08:43:07;;;;;;;4.65;1.25;;;27.80;99.90;;;;;;5104300;28;20096;-75
2023/05/31 08:45:35;;;;;;;0.00;0.00;;;27.30;99.90;;;;;;5104167;28;20176;-75
2023/05/31 08:48:10;;;;;;;2.33;0.40;;;27.10;99.90;;;;;;5104093;28;20047;-75
2023/05/31 08:50:36;;;;;;;0.50;0.43;;;27.00;99.90;;;;;;5104191;28;20419;-75
2023/05/31 08:53:05;;;;;;;0.80;0.45;;;27.40;99.90;;;;;;5103988;28;20040;-75
2023/05/31 08:55:31;;;;;;;0.08;0.08;;;27.60;99.90;;;;;;5103537;28;20047;-75
2023/05/31 08:57:58;;;;;;;0.05;0.03;;;27.00;99.90;;;;;;5103695;28;20044;-75
2023/05/31 09:00:24;;;;;;;0.10;0.00;;;27.70;99.90;;;;;;5103566;28;20092;-75
2023/05/31 09:02:51;;;;;;;0.43;0.20;;;27.80;99.90;;;;;;5103565;28;20562;-75
2023/05/31 09:05:17;;;;;;;0.52;0.30;;;28.70;99.90;;;;;;5103919;28;20409;-75
2023/05/31 09:07:43;;;;;;;1.23;0.57;;;28.60;99.90;;;;;;5103497;28;20417;-75
2023/05/31 09:10:10;;;;;;;0.55;0.50;;;28.80;99.90;;;;;;5103447;28;20040;-75
2023/05/31 09:12:36;;;;;;;0.10;0.10;;;28.20;99.90;;;;;;5103033;28;20063;-75
2023/05/31 09:15:03;;;;;;;0.20;0.20;;;26.30;99.90;;;;;;5103197;28;20048;-75
2023/05/31 09:17:30;;;;;;;0.43;0.35;;;26.50;99.90;;;;;;5103886;28;20096;-75
2023/05/31 09:19:56;;;;;;;2.03;1.23;;;27.10;99.90;;;;;;5103736;28;20169;-75
2023/05/31 09:22:22;;;;;;;0.22;0.08;;;28.00;99.90;;;;;;5103358;28;20553;-75
2023/05/31 09:24:56;;;;;;;9.40;0.80;;;28.00;99.90;;;;;;5103245;28;20051;-75
2023/05/31 09:27:22;;;;;;;0.45;0.30;;;28.20;99.90;;;;;;5103677;28;20378;-75
2023/05/31 09:29:54;;;;;;;2.42;0.75;;;28.00;99.90;;;;;;5102105;28;20130;-75
2023/05/31 09:32:20;;;;;;;0.20;0.20;;;27.90;99.90;;;;;;5103005;28;20047;-75
2023/05/31 09:34:46;;;;;;;0.45;0.45;;;28.20;99.90;;;;;;5103117;28;20044;-75
2023/05/31 09:37:25;;;;;;;0.05;0.05;;;28.40;99.90;;;;;;5103591;28;20058;-75
2023/05/31 09:39:55;;;;;;;0.28;0.10;;;29.70;99.90;;;;;;5103553;28;20052;-75
2023/05/31 09:42:21;;;;;;;0.93;0.70;;;29.30;99.90;;;;;;5103204;28;20052;-75
2023/05/31 09:44:48;;;;;;;0.35;0.28;;;28.80;99.90;;;;;;5103049;28;20047;-75
2023/05/31 09:47:14;;;;;;;0.38;0.30;;;27.90;99.90;;;;;;5103516;28;20063;-75
2023/05/31 09:49:43;;;;;;;1.30;0.82;;;27.50;99.90;;;;;;5102885;28;20442;-75
2023/05/31 09:52:13;;;;;;;2.00;0.68;;;27.10;99.90;;;;;;5102576;28;20661;-75
2023/05/31 09:54:39;;;;;;;0.88;0.75;;;26.90;99.90;;;;;;5102686;28;20055;-75
2023/05/31 09:57:06;;;;;;;0.30;0.30;;;26.70;99.90;;;;;;5102816;28;20059;-75
2023/05/31 09:59:34;;;;;;;2.67;1.30;;;26.30;99.90;;;;;;5102463;28;20118;-75
2023/05/31 10:02:01;;;;;;;6.13;0.45;;;26.10;99.90;;;;;;5102684;28;20114;-75
2023/05/31 10:04:28;;;;;;;0.20;0.20;;;25.90;99.90;;;;;;5084279;28;20058;-75
2023/05/31 10:06:54;;;;;;;0.73;0.50;;;25.80;99.90;;;;;;5102608;28;20122;-75
2023/05/31 10:09:20;;;;;;;1.95;0.55;;;25.00;99.90;;;;;;5110133;27;20118;-75
2023/05/31 10:11:50;;;;;;;4.07;0.82;;;24.40;99.90;;;;;;5121509;27;20086;-75
2023/05/31 10:14:25;;;;;;;1.83;1.13;;;23.90;99.90;;;;;;5122821;27;20087;-75
2023/05/31 10:16:54;;;;;;;7.28;1.90;;;23.80;99.90;;;;;;5122946;27;20144;-75
2023/05/31 10:19:27;;;;;;;0.17;0.15;;;23.40;99.90;;;;;;5122918;27;20046;-75
2023/05/31 10:21:55;;;;;;;0.43;0.43;;;23.40;99.90;;;;;;5123046;27;20047;-75
2023/05/31 10:24:25;;;;;;;3.42;0.75;;;23.30;99.90;;;;;;5122962;27;20058;-74
2023/05/31 10:27:06;;;;;;;0.93;0.77;;;23.60;99.90;;;;;;5122852;28;20501;-74
2023/05/31 10:29:37;;;;;;;0.35;0.30;;;23.70;99.90;;;;;;5122718;28;20047;-75
2023/05/31 10:32:26;;;;;;;2.15;1.15;;;23.70;99.90;;;;;;5122554;28;20039;-75
2023/05/31 10:34:53;;;;;;;1.88;1.35;;;23.30;99.90;;;;;;5104737;28;20104;-75
2023/05/31 10:37:20;;;;;;;0.25;0.25;;;23.40;99.90;;;;;;5123095;28;20376;-75
2023/05/31 10:40:05;;;;;;;0.85;0.63;;;23.30;99.90;;;;;;5123259;27;20075;-74
2023/05/31 10:42:40;;;;;;;0.52;0.52;;;23.30;99.90;;;;;;5127468;27;20047;-75
2023/05/31 10:45:28;;;;;;;0.32;0.32;;;23.40;99.90;;;;;;5127191;27;20050;-74
2023/05/31 10:48:12;;;;;;;0.70;0.38;;;23.50;99.90;;;;;;5126834;27;20058;-75
2023/05/31 10:51:01;;;;;;;0.15;0.08;;;23.60;99.90;;;;;;5126690;27;20130;-75
2023/05/31 10:53:34;;;;;;;0.00;0.00;;;23.50;99.90;;;;;;5126862;27;20125;-74
2023/05/31 10:56:11;;;;;;;4.13;1.27;;;23.60;99.90;;;;;;5127195;27;20401;-74
2023/05/31 10:58:38;;;;;;;0.08;0.08;;;23.70;99.90;;;;;;5126481;27;20043;-75
2023/05/31 11:01:09;;;;;;;0.17;0.10;;;23.90;99.90;;;;;;5126218;27;20054;-74
2023/05/31 11:03:36;;;;;;;0.00;0.00;;;23.90;99.90;;;;;;5127106;27;20091;-74
2023/05/31 11:06:06;;;;;;;0.80;0.63;;;23.70;99.90;;;;;;5126435;27;20550;-74
2023/05/31 11:08:32;;;;;;;0.20;0.20;;;23.80;99.90;;;;;;5126828;27;20047;-74
2023/05/31 11:11:27;;;;;;;0.57;0.43;;;23.30;99.90;;;;;;5126112;27;20104;-74
2023/05/31 11:14:00;;;;;;;0.95;0.47;;;23.60;99.90;;;;;;5126470;27;20084;-75
2023/05/31 11:16:27;;;;;;;14.88;1.48;;;23.80;99.90;;;;;;5126742;27;20054;-74
2023/05/31 11:19:03;;;;;;;0.80;0.57;;;23.20;99.90;;;;;;5126605;27;20135;-74
2023/05/31 11:21:52;;;;;;;0.85;0.50;;;23.50;99.90;;;;;;5126238;27;20515;-75
2023/05/31 11:24:29;;;;;;;0.15;0.15;;;23.60;99.90;;;;;;5126367;27;20047;-75
2023/05/31 11:26:59;;;;;;;0.10;0.10;;;23.60;99.90;;;;;;5126299;27;20039;-75
2023/05/31 11:29:25;;;;;;;0.75;0.70;;;24.00;99.90;;;;;;5126238;27;20396;-74
2023/05/31 11:31:54;;;;;;;0.43;0.30;;;23.90;99.90;;;;;;5126234;27;20039;-74
2023/05/31 11:34:24;;;;;;;0.52;0.50;;;23.90;99.90;;;;;;5125839;27;20130;-75
2023/05/31 11:36:50;;;;;;;1.02;0.85;;;24.20;99.90;;;;;;5125985;27;20134;-75
2023/05/31 11:39:20;;;;;;;1.65;0.75;;;24.80;99.90;;;;;;5107654;27;20443;-75
2023/05/31 11:41:46;;;;;;;5.00;1.38;;;25.00;99.90;;;;;;5126085;27;20035;-75
2023/05/31 11:44:13;;;;;;;1.58;0.80;;;25.20;99.90;;;;;;5125808;27;20059;-75
2023/05/31 11:46:41;;;;;;;0.85;0.63;;;25.10;99.90;;;;;;5126187;27;20047;-75
2023/05/31 11:49:12;;;;;;;0.13;0.13;;;25.70;99.90;;;;;;5125416;27;20139;-75
2023/05/31 11:51:42;;;;;;;2.85;0.73;;;26.30;99.90;;;;;;5124928;27;20039;-74
2023/05/31 11:54:08;;;;;;;0.52;0.38;;;26.30;99.90;;;;;;5125687;27;20043;-75
2023/05/31 11:56:36;;;;;;;0.38;0.28;;;26.50;99.90;;;;;;5125633;27;20054;-75
2023/05/31 11:59:02;;;;;;;5.28;0.55;;;26.80;99.90;;;;;;5126087;27;20051;-74
2023/05/31 12:01:34;;;;;;;7.38;0.45;;;26.80;99.90;;;;;;5125687;27;20047;-75
2023/05/31 12:04:00;;;;;;;0.60;0.30;;;25.90;99.90;;;;;;5125756;27;20035;-75
2023/05/31 12:06:26;;;;;;;0.60;0.52;;;25.90;99.90;;;;;;5125218;27;20507;-75
2023/05/31 12:08:52;;;;;;;0.85;0.40;;;26.60;99.90;;;;;;5125955;27;20409;-75
2023/05/31 12:11:19;;;;;;;1.25;0.60;;;26.80;99.90;;;;;;5125287;27;20055;-75
2023/05/31 12:13:45;;;;;;;0.45;0.45;;;26.60;99.90;;;;;;5125929;27;20079;-75
2023/05/31 12:16:10;;;;;;;0.55;0.32;;;26.20;99.90;;;;;;5125599;27;20553;-75
2023/05/31 12:18:36;;;;;;;1.38;1.05;;;26.60;99.90;;;;;;5125422;27;20088;-75
2023/05/31 12:21:11;;;;;;;0.38;0.32;;;26.40;99.90;;;;;;5125059;27;20049;-74
2023/05/31 12:23:57;;;;;;;0.77;0.60;;;26.80;99.90;;;;;;5125021;27;20095;-75
2023/05/31 12:26:24;;;;;;;0.20;0.20;;;26.60;99.90;;;;;;5125056;27;20122;-74
2023/05/31 12:28:54;;;;;;;2.63;1.15;;;26.50;99.90;;;;;;5124782;27;20520;-75
2023/05/31 12:31:22;;;;;;;1.35;0.98;;;26.30;99.90;;;;;;5125364;27;20065;-75
2023/05/31 12:34:07;;;;;;;0.68;0.60;;;26.60;99.90;;;;;;5124812;27;20078;-75
2023/05/31 12:36:48;;;;;;;0.03;0.03;;;26.70;99.90;;;;;;5125055;27;20099;-75
2023/05/31 12:39:18;;;;;;;0.52;0.32;;;26.10;99.90;;;;;;5124343;27;20188;-75
2023/05/31 12:41:45;;;;;;;2.95;0.68;;;26.30;99.90;;;;;;5125258;27;20051;-75
2023/05/31 12:44:16;;;;;;;24.73;2.00;;;26.40;99.90;;;;;;5124679;27;20118;-75
2023/05/31 12:46:45;;;;;;;2.03;0.77;;;26.60;99.90;;;;;;5124529;27;20075;-75
2023/05/31 12:49:29;;;;;;;0.60;0.55;;;26.70;99.90;;;;;;5124515;27;20540;-75
2023/05/31 12:52:02;;;;;;;4.10;0.75;;;27.10;99.90;;;;;;5124517;27;20438;-75
2023/05/31 12:54:32;;;;;;;3.20;1.55;;;26.70;99.90;;;;;;5124220;27;20051;-75